sensor_id;sensor_type;location;lat;lon;timestamp;P1;durP1;ratioP1;P2;durP2;ratioP2
55134;SDS011;41031;44.750;11.308;2022-07-29T00:01:03;11.67;;;7.43;;
55134;SDS011;41031;44.750;11.308;2022-07-29T00:03:30;10.83;;;8.00;;
55134;SDS011;41031;44.750;11.308;2022-07-29T00:05:58;11.73;;;6.93;;
55134;SDS011;41031;44.750;11.308;2022-07-29T00:08:26;12.07;;;7.70;;
55134;SDS011;41031;44.750;11.308;2022-07-29T00:10:53;9.43;;;6.83;;
55134;SDS011;41031;44.750;11.308;2022-07-29T00:13:20;8.37;;;7.57;;
55134;SDS011;41031;44.750;11.308;2022-07-29T00:15:58;8.80;;;7.67;;
55134;SDS011;41031;44.750;11.308;2022-07-29T00:18:30;11.27;;;7.87;;
55134;SDS011;41031;44.750;11.308;2022-07-29T00:20:58;8.83;;;7.43;;
55134;SDS011;41031;44.750;11.308;2022-07-29T00:23:25;9.90;;;7.10;;
55134;SDS011;41031;44.750;11.308;2022-07-29T00:25:52;13.27;;;7.90;;
55134;SDS011;41031;44.750;11.308;2022-07-29T00:28:19;8.30;;;7.03;;
55134;SDS011;41031;44.750;11.308;2022-07-29T00:30:46;8.07;;;7.17;;
55134;SDS011;41031;44.750;11.308;2022-07-29T00:33:13;9.87;;;7.33;;
55134;SDS011;41031;44.750;11.308;2022-07-29T00:35:40;9.03;;;7.90;;
55134;SDS011;41031;44.750;11.308;2022-07-29T00:38:13;9.47;;;7.57;;
55134;SDS011;41031;44.750;11.308;2022-07-29T00:40:42;12.13;;;7.87;;
55134;SDS011;41031;44.750;11.308;2022-07-29T00:43:10;9.20;;;7.73;;
55134;SDS011;41031;44.750;11.308;2022-07-29T00:45:39;9.97;;;8.00;;
55134;SDS011;41031;44.750;11.308;2022-07-29T00:48:07;11.07;;;7.87;;
55134;SDS011;41031;44.750;11.308;2022-07-29T00:50:35;10.03;;;7.60;;
55134;SDS011;41031;44.750;11.308;2022-07-29T00:53:03;10.90;;;7.73;;
55134;SDS011;41031;44.750;11.308;2022-07-29T00:55:33;15.03;;;7.40;;
55134;SDS011;41031;44.750;11.308;2022-07-29T00:58:00;9.33;;;8.10;;
55134;SDS011;41031;44.750;11.308;2022-07-29T01:00:28;9.37;;;8.10;;
55134;SDS011;41031;44.750;11.308;2022-07-29T01:02:55;11.83;;;7.80;;
55134;SDS011;41031;44.750;11.308;2022-07-29T01:05:23;16.87;;;9.13;;
55134;SDS011;41031;44.750;11.308;2022-07-29T01:08:14;9.87;;;8.17;;
55134;SDS011;41031;44.750;11.308;2022-07-29T01:10:42;8.73;;;7.83;;
55134;SDS011;41031;44.750;11.308;2022-07-29T01:13:10;14.47;;;8.07;;
55134;SDS011;41031;44.750;11.308;2022-07-29T01:15:41;11.77;;;8.97;;
55134;SDS011;41031;44.750;11.308;2022-07-29T01:21:09;17.10;;;9.47;;
55134;SDS011;41031;44.750;11.308;2022-07-29T01:27:07;12.73;;;8.93;;
55134;SDS011;41031;44.750;11.308;2022-07-29T01:29:52;9.60;;;8.27;;
55134;SDS011;41031;44.750;11.308;2022-07-29T01:32:24;14.20;;;8.97;;
55134;SDS011;41031;44.750;11.308;2022-07-29T01:35:12;9.20;;;7.47;;
55134;SDS011;41031;44.750;11.308;2022-07-29T01:38:03;10.17;;;8.17;;
55134;SDS011;41031;44.750;11.308;2022-07-29T01:40:47;8.37;;;7.57;;
55134;SDS011;41031;44.750;11.308;2022-07-29T01:43:20;9.40;;;8.43;;
55134;SDS011;41031;44.750;11.308;2022-07-29T01:45:57;10.47;;;8.67;;
55134;SDS011;41031;44.750;11.308;2022-07-29T01:48:34;8.93;;;8.13;;
55134;SDS011;41031;44.750;11.308;2022-07-29T01:51:12;9.80;;;8.03;;
55134;SDS011;41031;44.750;11.308;2022-07-29T01:54:02;9.87;;;7.87;;
55134;SDS011;41031;44.750;11.308;2022-07-29T01:56:33;8.60;;;7.70;;
55134;SDS011;41031;44.750;11.308;2022-07-29T01:59:03;9.10;;;8.13;;
55134;SDS011;41031;44.750;11.308;2022-07-29T02:01:33;10.63;;;8.77;;
55134;SDS011;41031;44.750;11.308;2022-07-29T02:04:02;11.87;;;8.27;;
55134;SDS011;41031;44.750;11.308;2022-07-29T02:06:33;9.10;;;8.07;;
55134;SDS011;41031;44.750;11.308;2022-07-29T02:09:03;8.40;;;7.60;;
55134;SDS011;41031;44.750;11.308;2022-07-29T02:11:33;8.33;;;7.53;;
55134;SDS011;41031;44.750;11.308;2022-07-29T02:14:04;10.47;;;7.70;;
55134;SDS011;41031;44.750;11.308;2022-07-29T02:16:32;9.77;;;7.00;;
55134;SDS011;41031;44.750;11.308;2022-07-29T02:19:02;13.53;;;8.03;;
55134;SDS011;41031;44.750;11.308;2022-07-29T02:21:30;9.67;;;8.37;;
55134;SDS011;41031;44.750;11.308;2022-07-29T02:24:00;8.67;;;7.87;;
55134;SDS011;41031;44.750;11.308;2022-07-29T02:26:29;8.57;;;7.77;;
55134;SDS011;41031;44.750;11.308;2022-07-29T02:28:58;10.93;;;8.67;;
55134;SDS011;41031;44.750;11.308;2022-07-29T02:31:29;9.17;;;8.07;;
55134;SDS011;41031;44.750;11.308;2022-07-29T02:33:59;12.27;;;8.27;;
55134;SDS011;41031;44.750;11.308;2022-07-29T02:36:32;11.33;;;7.77;;
55134;SDS011;41031;44.750;11.308;2022-07-29T02:39:00;8.77;;;7.67;;
55134;SDS011;41031;44.750;11.308;2022-07-29T02:41:41;8.70;;;7.80;;
55134;SDS011;41031;44.750;11.308;2022-07-29T02:44:09;9.40;;;8.27;;
55134;SDS011;41031;44.750;11.308;2022-07-29T02:52:02;10.60;;;8.50;;
55134;SDS011;41031;44.750;11.308;2022-07-29T02:54:37;10.27;;;8.80;;
55134;SDS011;41031;44.750;11.308;2022-07-29T02:57:27;9.07;;;8.07;;
55134;SDS011;41031;44.750;11.308;2022-07-29T03:00:01;10.03;;;7.93;;
55134;SDS011;41031;44.750;11.308;2022-07-29T03:02:33;8.37;;;7.60;;
55134;SDS011;41031;44.750;11.308;2022-07-29T03:05:03;11.80;;;8.57;;
55134;SDS011;41031;44.750;11.308;2022-07-29T03:07:34;13.70;;;8.33;;
55134;SDS011;41031;44.750;11.308;2022-07-29T03:10:02;9.83;;;8.47;;
55134;SDS011;41031;44.750;11.308;2022-07-29T03:12:36;8.60;;;7.80;;
55134;SDS011;41031;44.750;11.308;2022-07-29T03:15:04;9.43;;;8.07;;
55134;SDS011;41031;44.750;11.308;2022-07-29T03:17:32;9.83;;;8.00;;
55134;SDS011;41031;44.750;11.308;2022-07-29T03:20:00;9.43;;;7.57;;
55134;SDS011;41031;44.750;11.308;2022-07-29T03:22:27;7.97;;;7.17;;
55134;SDS011;41031;44.750;11.308;2022-07-29T03:24:55;9.87;;;7.70;;
55134;SDS011;41031;44.750;11.308;2022-07-29T03:27:22;10.47;;;8.00;;
55134;SDS011;41031;44.750;11.308;2022-07-29T03:29:49;8.13;;;7.33;;
55134;SDS011;41031;44.750;11.308;2022-07-29T03:32:16;8.23;;;7.37;;
55134;SDS011;41031;44.750;11.308;2022-07-29T03:34:49;10.63;;;7.90;;
55134;SDS011;41031;44.750;11.308;2022-07-29T03:37:16;9.10;;;8.20;;
55134;SDS011;41031;44.750;11.308;2022-07-29T03:39:43;9.27;;;8.37;;
55134;SDS011;41031;44.750;11.308;2022-07-29T03:42:13;12.10;;;8.37;;
55134;SDS011;41031;44.750;11.308;2022-07-29T03:44:42;8.90;;;8.00;;
55134;SDS011;41031;44.750;11.308;2022-07-29T03:47:14;8.83;;;7.53;;
55134;SDS011;41031;44.750;11.308;2022-07-29T03:49:44;12.57;;;8.13;;
55134;SDS011;41031;44.750;11.308;2022-07-29T03:52:14;10.97;;;9.00;;
55134;SDS011;41031;44.750;11.308;2022-07-29T03:54:42;9.53;;;8.17;;
55134;SDS011;41031;44.750;11.308;2022-07-29T03:57:10;10.37;;;9.30;;
55134;SDS011;41031;44.750;11.308;2022-07-29T03:59:38;11.37;;;8.83;;
55134;SDS011;41031;44.750;11.308;2022-07-29T04:02:08;10.30;;;9.23;;
55134;SDS011;41031;44.750;11.308;2022-07-29T04:04:37;14.83;;;10.53;;
55134;SDS011;41031;44.750;11.308;2022-07-29T04:07:04;13.53;;;10.17;;
55134;SDS011;41031;44.750;11.308;2022-07-29T04:09:32;14.07;;;9.43;;
55134;SDS011;41031;44.750;11.308;2022-07-29T04:11:59;13.87;;;9.43;;
55134;SDS011;41031;44.750;11.308;2022-07-29T04:14:29;16.73;;;8.93;;
55134;SDS011;41031;44.750;11.308;2022-07-29T04:17:00;10.17;;;9.17;;
55134;SDS011;41031;44.750;11.308;2022-07-29T04:19:29;10.43;;;8.40;;
55134;SDS011;41031;44.750;11.308;2022-07-29T04:21:57;9.13;;;8.23;;
55134;SDS011;41031;44.750;11.308;2022-07-29T04:24:25;12.27;;;9.40;;
55134;SDS011;41031;44.750;11.308;2022-07-29T04:26:54;10.80;;;8.63;;
55134;SDS011;41031;44.750;11.308;2022-07-29T04:29:21;10.50;;;9.27;;
55134;SDS011;41031;44.750;11.308;2022-07-29T04:31:48;14.00;;;10.17;;
55134;SDS011;41031;44.750;11.308;2022-07-29T04:34:15;14.73;;;9.37;;
55134;SDS011;41031;44.750;11.308;2022-07-29T04:36:43;12.67;;;8.67;;
55134;SDS011;41031;44.750;11.308;2022-07-29T04:39:10;9.30;;;7.63;;
55134;SDS011;41031;44.750;11.308;2022-07-29T04:41:37;9.17;;;7.80;;
55134;SDS011;41031;44.750;11.308;2022-07-29T04:44:04;11.37;;;8.40;;
55134;SDS011;41031;44.750;11.308;2022-07-29T04:46:33;9.87;;;8.37;;
55134;SDS011;41031;44.750;11.308;2022-07-29T04:49:01;11.13;;;8.10;;
55134;SDS011;41031;44.750;11.308;2022-07-29T04:51:29;9.30;;;7.70;;
55134;SDS011;41031;44.750;11.308;2022-07-29T04:53:56;9.10;;;6.53;;
55134;SDS011;41031;44.750;11.308;2022-07-29T04:56:23;12.20;;;6.63;;
55134;SDS011;41031;44.750;11.308;2022-07-29T04:58:50;8.03;;;6.50;;
55134;SDS011;41031;44.750;11.308;2022-07-29T05:01:17;10.73;;;6.13;;
55134;SDS011;41031;44.750;11.308;2022-07-29T05:03:45;13.47;;;5.97;;
55134;SDS011;41031;44.750;11.308;2022-07-29T05:06:12;7.20;;;5.67;;
55134;SDS011;41031;44.750;11.308;2022-07-29T05:08:39;7.90;;;5.40;;
55134;SDS011;41031;44.750;11.308;2022-07-29T05:11:07;6.53;;;5.80;;
55134;SDS011;41031;44.750;11.308;2022-07-29T05:13:39;7.67;;;5.17;;
55134;SDS011;41031;44.750;11.308;2022-07-29T05:16:12;11.23;;;5.03;;
55134;SDS011;41031;44.750;11.308;2022-07-29T05:18:40;9.03;;;4.47;;
55134;SDS011;41031;44.750;11.308;2022-07-29T05:21:08;4.40;;;4.00;;
55134;SDS011;41031;44.750;11.308;2022-07-29T05:23:35;4.67;;;4.03;;
55134;SDS011;41031;44.750;11.308;2022-07-29T05:26:02;5.63;;;4.33;;
55134;SDS011;41031;44.750;11.308;2022-07-29T05:28:32;5.17;;;4.20;;
55134;SDS011;41031;44.750;11.308;2022-07-29T05:31:01;6.83;;;4.23;;
55134;SDS011;41031;44.750;11.308;2022-07-29T05:33:28;5.70;;;3.70;;
55134;SDS011;41031;44.750;11.308;2022-07-29T05:36:04;3.87;;;3.50;;
55134;SDS011;41031;44.750;11.308;2022-07-29T05:38:34;4.40;;;3.40;;
55134;SDS011;41031;44.750;11.308;2022-07-29T05:41:02;6.70;;;3.67;;
55134;SDS011;41031;44.750;11.308;2022-07-29T05:43:30;7.87;;;3.77;;
55134;SDS011;41031;44.750;11.308;2022-07-29T05:45:58;4.50;;;3.13;;
55134;SDS011;41031;44.750;11.308;2022-07-29T05:48:26;3.57;;;3.27;;
55134;SDS011;41031;44.750;11.308;2022-07-29T05:50:53;5.53;;;4.00;;
55134;SDS011;41031;44.750;11.308;2022-07-29T05:53:21;6.30;;;3.40;;
55134;SDS011;41031;44.750;11.308;2022-07-29T05:55:49;5.43;;;3.73;;
55134;SDS011;41031;44.750;11.308;2022-07-29T05:58:16;4.50;;;4.13;;
55134;SDS011;41031;44.750;11.308;2022-07-29T06:00:43;5.77;;;4.10;;
55134;SDS011;41031;44.750;11.308;2022-07-29T06:03:10;5.30;;;4.37;;
55134;SDS011;41031;44.750;11.308;2022-07-29T06:05:38;7.33;;;4.03;;
55134;SDS011;41031;44.750;11.308;2022-07-29T06:08:05;6.87;;;4.20;;
55134;SDS011;41031;44.750;11.308;2022-07-29T06:10:37;5.47;;;3.77;;
55134;SDS011;41031;44.750;11.308;2022-07-29T06:13:04;5.70;;;4.13;;
55134;SDS011;41031;44.750;11.308;2022-07-29T06:15:31;4.83;;;3.80;;
55134;SDS011;41031;44.750;11.308;2022-07-29T06:17:59;4.53;;;3.73;;
55134;SDS011;41031;44.750;11.308;2022-07-29T06:20:30;5.47;;;3.67;;
55134;SDS011;41031;44.750;11.308;2022-07-29T06:22:58;4.03;;;3.63;;
55134;SDS011;41031;44.750;11.308;2022-07-29T06:25:26;3.93;;;3.20;;
55134;SDS011;41031;44.750;11.308;2022-07-29T06:27:56;4.53;;;3.23;;
55134;SDS011;41031;44.750;11.308;2022-07-29T06:30:24;6.77;;;3.90;;
55134;SDS011;41031;44.750;11.308;2022-07-29T06:32:51;5.70;;;3.37;;
55134;SDS011;41031;44.750;11.308;2022-07-29T06:35:19;6.10;;;3.50;;
55134;SDS011;41031;44.750;11.308;2022-07-29T06:38:06;4.70;;;3.30;;
55134;SDS011;41031;44.750;11.308;2022-07-29T06:40:53;4.10;;;2.97;;
55134;SDS011;41031;44.750;11.308;2022-07-29T06:43:38;4.40;;;3.43;;
55134;SDS011;41031;44.750;11.308;2022-07-29T06:46:18;3.90;;;2.87;;
55134;SDS011;41031;44.750;11.308;2022-07-29T06:48:46;6.33;;;3.50;;
55134;SDS011;41031;44.750;11.308;2022-07-29T06:51:14;5.03;;;3.03;;
55134;SDS011;41031;44.750;11.308;2022-07-29T06:53:41;3.40;;;3.03;;
55134;SDS011;41031;44.750;11.308;2022-07-29T06:56:31;4.97;;;3.70;;
55134;SDS011;41031;44.750;11.308;2022-07-29T06:59:05;4.77;;;3.30;;
55134;SDS011;41031;44.750;11.308;2022-07-29T07:01:33;3.73;;;3.43;;
55134;SDS011;41031;44.750;11.308;2022-07-29T07:04:01;5.33;;;3.97;;
55134;SDS011;41031;44.750;11.308;2022-07-29T07:06:28;3.90;;;3.23;;
55134;SDS011;41031;44.750;11.308;2022-07-29T07:08:56;4.10;;;3.40;;
55134;SDS011;41031;44.750;11.308;2022-07-29T07:11:23;4.57;;;3.57;;
55134;SDS011;41031;44.750;11.308;2022-07-29T07:13:50;5.07;;;3.50;;
55134;SDS011;41031;44.750;11.308;2022-07-29T07:16:17;4.13;;;3.77;;
55134;SDS011;41031;44.750;11.308;2022-07-29T07:18:45;4.27;;;3.53;;
55134;SDS011;41031;44.750;11.308;2022-07-29T07:21:12;4.63;;;3.67;;
55134;SDS011;41031;44.750;11.308;2022-07-29T07:23:45;5.37;;;3.27;;
55134;SDS011;41031;44.750;11.308;2022-07-29T07:26:13;6.83;;;3.87;;
55134;SDS011;41031;44.750;11.308;2022-07-29T07:28:40;5.03;;;3.13;;
55134;SDS011;41031;44.750;11.308;2022-07-29T07:31:08;3.97;;;2.93;;
55134;SDS011;41031;44.750;11.308;2022-07-29T07:33:35;3.37;;;3.07;;
55134;SDS011;41031;44.750;11.308;2022-07-29T07:36:03;3.90;;;3.17;;
55134;SDS011;41031;44.750;11.308;2022-07-29T07:38:30;4.33;;;3.40;;
55134;SDS011;41031;44.750;11.308;2022-07-29T07:40:57;3.40;;;2.80;;
55134;SDS011;41031;44.750;11.308;2022-07-29T07:43:25;5.83;;;3.47;;
55134;SDS011;41031;44.750;11.308;2022-07-29T07:45:52;5.20;;;2.93;;
55134;SDS011;41031;44.750;11.308;2022-07-29T07:48:19;5.57;;;3.53;;
55134;SDS011;41031;44.750;11.308;2022-07-29T07:50:47;3.83;;;3.23;;
55134;SDS011;41031;44.750;11.308;2022-07-29T07:53:15;4.73;;;3.67;;
55134;SDS011;41031;44.750;11.308;2022-07-29T07:55:43;6.50;;;3.30;;
55134;SDS011;41031;44.750;11.308;2022-07-29T07:58:31;5.60;;;3.47;;
55134;SDS011;41031;44.750;11.308;2022-07-29T08:00:58;4.40;;;3.70;;
55134;SDS011;41031;44.750;11.308;2022-07-29T08:03:25;3.83;;;3.27;;
55134;SDS011;41031;44.750;11.308;2022-07-29T08:05:52;3.87;;;3.53;;
55134;SDS011;41031;44.750;11.308;2022-07-29T08:08:20;8.17;;;4.53;;
55134;SDS011;41031;44.750;11.308;2022-07-29T08:10:48;4.30;;;3.73;;
55134;SDS011;41031;44.750;11.308;2022-07-29T08:13:24;6.10;;;4.33;;
55134;SDS011;41031;44.750;11.308;2022-07-29T08:15:56;4.80;;;4.13;;
55134;SDS011;41031;44.750;11.308;2022-07-29T08:18:27;6.33;;;4.20;;
55134;SDS011;41031;44.750;11.308;2022-07-29T08:20:55;5.07;;;3.47;;
55134;SDS011;41031;44.750;11.308;2022-07-29T08:23:23;4.77;;;3.97;;
55134;SDS011;41031;44.750;11.308;2022-07-29T08:25:50;4.00;;;3.33;;
55134;SDS011;41031;44.750;11.308;2022-07-29T08:28:20;4.10;;;3.70;;
55134;SDS011;41031;44.750;11.308;2022-07-29T08:30:51;6.87;;;4.17;;
55134;SDS011;41031;44.750;11.308;2022-07-29T08:33:18;7.20;;;3.80;;
55134;SDS011;41031;44.750;11.308;2022-07-29T08:35:46;5.07;;;4.10;;
55134;SDS011;41031;44.750;11.308;2022-07-29T08:38:13;5.10;;;4.40;;
55134;SDS011;41031;44.750;11.308;2022-07-29T08:40:40;5.13;;;4.27;;
55134;SDS011;41031;44.750;11.308;2022-07-29T08:43:08;4.83;;;3.70;;
55134;SDS011;41031;44.750;11.308;2022-07-29T08:45:40;6.37;;;4.00;;
55134;SDS011;41031;44.750;11.308;2022-07-29T08:48:16;4.80;;;4.20;;
55134;SDS011;41031;44.750;11.308;2022-07-29T08:50:45;6.80;;;4.60;;
55134;SDS011;41031;44.750;11.308;2022-07-29T08:53:15;7.53;;;4.00;;
55134;SDS011;41031;44.750;11.308;2022-07-29T08:55:45;7.87;;;3.30;;
55134;SDS011;41031;44.750;11.308;2022-07-29T08:58:13;5.70;;;3.93;;
55134;SDS011;41031;44.750;11.308;2022-07-29T09:00:45;4.93;;;3.63;;
55134;SDS011;41031;44.750;11.308;2022-07-29T09:03:18;4.80;;;3.50;;
55134;SDS011;41031;44.750;11.308;2022-07-29T09:05:46;5.47;;;4.37;;
55134;SDS011;41031;44.750;11.308;2022-07-29T09:08:15;4.77;;;4.30;;
55134;SDS011;41031;44.750;11.308;2022-07-29T09:10:43;4.07;;;3.67;;
55134;SDS011;41031;44.750;11.308;2022-07-29T09:13:11;5.00;;;3.37;;
55134;SDS011;41031;44.750;11.308;2022-07-29T09:15:38;4.47;;;4.07;;
55134;SDS011;41031;44.750;11.308;2022-07-29T09:18:06;5.27;;;3.50;;
55134;SDS011;41031;44.750;11.308;2022-07-29T09:20:54;6.77;;;3.70;;
55134;SDS011;41031;44.750;11.308;2022-07-29T09:23:39;4.23;;;3.93;;
55134;SDS011;41031;44.750;11.308;2022-07-29T09:26:08;4.10;;;3.80;;
55134;SDS011;41031;44.750;11.308;2022-07-29T09:28:35;3.30;;;3.00;;
55134;SDS011;41031;44.750;11.308;2022-07-29T09:31:08;5.63;;;3.80;;
55134;SDS011;41031;44.750;11.308;2022-07-29T09:33:35;4.67;;;3.43;;
55134;SDS011;41031;44.750;11.308;2022-07-29T09:36:06;4.60;;;2.97;;
55134;SDS011;41031;44.750;11.308;2022-07-29T09:38:35;4.97;;;3.20;;
55134;SDS011;41031;44.750;11.308;2022-07-29T09:41:04;7.33;;;3.60;;
55134;SDS011;41031;44.750;11.308;2022-07-29T09:43:32;3.73;;;3.07;;
55134;SDS011;41031;44.750;11.308;2022-07-29T09:46:10;3.60;;;3.30;;
55134;SDS011;41031;44.750;11.308;2022-07-29T09:48:38;5.10;;;3.50;;
55134;SDS011;41031;44.750;11.308;2022-07-29T09:51:16;5.23;;;3.27;;
55134;SDS011;41031;44.750;11.308;2022-07-29T09:54:24;4.53;;;3.67;;
55134;SDS011;41031;44.750;11.308;2022-07-29T09:56:52;3.60;;;3.10;;
55134;SDS011;41031;44.750;11.308;2022-07-29T09:59:21;5.20;;;3.60;;
55134;SDS011;41031;44.750;11.308;2022-07-29T10:01:52;3.77;;;3.17;;
55134;SDS011;41031;44.750;11.308;2022-07-29T10:04:20;8.67;;;3.50;;
55134;SDS011;41031;44.750;11.308;2022-07-29T10:07:01;3.67;;;3.10;;
55134;SDS011;41031;44.750;11.308;2022-07-29T10:09:31;4.73;;;3.53;;
55134;SDS011;41031;44.750;11.308;2022-07-29T10:12:03;3.70;;;3.30;;
55134;SDS011;41031;44.750;11.308;2022-07-29T10:14:40;3.40;;;3.10;;
55134;SDS011;41031;44.750;11.308;2022-07-29T10:17:09;3.83;;;3.40;;
55134;SDS011;41031;44.750;11.308;2022-07-29T10:19:37;5.97;;;3.40;;
55134;SDS011;41031;44.750;11.308;2022-07-29T10:22:06;3.83;;;3.50;;
55134;SDS011;41031;44.750;11.308;2022-07-29T10:24:35;4.60;;;3.23;;
55134;SDS011;41031;44.750;11.308;2022-07-29T10:27:04;5.13;;;3.60;;
55134;SDS011;41031;44.750;11.308;2022-07-29T10:29:34;3.97;;;3.03;;
55134;SDS011;41031;44.750;11.308;2022-07-29T10:35:21;5.57;;;3.97;;
55134;SDS011;41031;44.750;11.308;2022-07-29T10:43:48;5.63;;;3.53;;
55134;SDS011;41031;44.750;11.308;2022-07-29T10:46:17;5.43;;;3.47;;
55134;SDS011;41031;44.750;11.308;2022-07-29T10:57:16;3.33;;;3.10;;
55134;SDS011;41031;44.750;11.308;2022-07-29T11:05:15;5.17;;;3.03;;
55134;SDS011;41031;44.750;11.308;2022-07-29T11:10:46;5.53;;;3.40;;
55134;SDS011;41031;44.750;11.308;2022-07-29T11:16:12;3.25;;;3.05;;
55134;SDS011;41031;44.750;11.308;2022-07-29T11:21:39;6.15;;;3.20;;
55134;SDS011;41031;44.750;11.308;2022-07-29T11:24:22;7.70;;;3.45;;
55134;SDS011;41031;44.750;11.308;2022-07-29T11:27:05;3.78;;;3.35;;
55134;SDS011;41031;44.750;11.308;2022-07-29T11:29:39;8.87;;;3.40;;
55134;SDS011;41031;44.750;11.308;2022-07-29T11:32:15;7.18;;;3.60;;
55134;SDS011;41031;44.750;11.308;2022-07-29T11:34:49;4.95;;;3.80;;
55134;SDS011;41031;44.750;11.308;2022-07-29T11:37:44;5.50;;;3.97;;
55134;SDS011;41031;44.750;11.308;2022-07-29T11:40:20;5.30;;;3.80;;
55134;SDS011;41031;44.750;11.308;2022-07-29T11:42:48;4.10;;;3.63;;
55134;SDS011;41031;44.750;11.308;2022-07-29T11:45:19;4.75;;;3.72;;
55134;SDS011;41031;44.750;11.308;2022-07-29T11:48:07;8.55;;;3.65;;
55134;SDS011;41031;44.750;11.308;2022-07-29T11:50:57;4.20;;;3.75;;
55134;SDS011;41031;44.750;11.308;2022-07-29T11:53:25;4.30;;;3.70;;
55134;SDS011;41031;44.750;11.308;2022-07-29T11:55:58;3.83;;;3.33;;
55134;SDS011;41031;44.750;11.308;2022-07-29T11:58:26;5.70;;;3.73;;
55134;SDS011;41031;44.750;11.308;2022-07-29T12:00:54;3.80;;;3.50;;
55134;SDS011;41031;44.750;11.308;2022-07-29T12:03:24;4.18;;;3.10;;
55134;SDS011;41031;44.750;11.308;2022-07-29T12:06:02;5.75;;;3.83;;
55134;SDS011;41031;44.750;11.308;2022-07-29T12:08:41;3.63;;;3.33;;
55134;SDS011;41031;44.750;11.308;2022-07-29T12:11:17;4.50;;;3.88;;
55134;SDS011;41031;44.750;11.308;2022-07-29T12:13:47;4.33;;;3.13;;
55134;SDS011;41031;44.750;11.308;2022-07-29T12:16:16;4.83;;;3.60;;
55134;SDS011;41031;44.750;11.308;2022-07-29T12:19:00;4.83;;;3.50;;
55134;SDS011;41031;44.750;11.308;2022-07-29T12:21:42;6.53;;;3.43;;
55134;SDS011;41031;44.750;11.308;2022-07-29T12:24:25;3.97;;;3.35;;
55134;SDS011;41031;44.750;11.308;2022-07-29T12:26:53;3.93;;;3.50;;
55134;SDS011;41031;44.750;11.308;2022-07-29T12:29:22;6.40;;;3.75;;
55134;SDS011;41031;44.750;11.308;2022-07-29T12:32:01;3.53;;;3.23;;
55134;SDS011;41031;44.750;11.308;2022-07-29T12:34:31;5.18;;;3.42;;
55134;SDS011;41031;44.750;11.308;2022-07-29T12:36:58;3.43;;;3.20;;
55134;SDS011;41031;44.750;11.308;2022-07-29T12:39:25;5.87;;;2.93;;
55134;SDS011;41031;44.750;11.308;2022-07-29T12:41:54;3.33;;;3.03;;
55134;SDS011;41031;44.750;11.308;2022-07-29T12:44:42;3.80;;;3.50;;
55134;SDS011;41031;44.750;11.308;2022-07-29T12:47:14;6.47;;;3.47;;
55134;SDS011;41031;44.750;11.308;2022-07-29T12:49:41;9.87;;;3.20;;
55134;SDS011;41031;44.750;11.308;2022-07-29T12:54:56;8.20;;;3.60;;
55134;SDS011;41031;44.750;11.308;2022-07-29T12:57:24;3.23;;;2.93;;
55134;SDS011;41031;44.750;11.308;2022-07-29T13:02:37;3.28;;;2.97;;
55134;SDS011;41031;44.750;11.308;2022-07-29T13:05:09;3.70;;;3.20;;
55134;SDS011;41031;44.750;11.308;2022-07-29T13:07:37;2.85;;;2.63;;
55134;SDS011;41031;44.750;11.308;2022-07-29T13:10:22;5.23;;;3.03;;
55134;SDS011;41031;44.750;11.308;2022-07-29T13:15:36;5.70;;;3.17;;
55134;SDS011;41031;44.750;11.308;2022-07-29T13:20:58;3.30;;;3.00;;
55134;SDS011;41031;44.750;11.308;2022-07-29T13:23:40;3.03;;;2.83;;
55134;SDS011;41031;44.750;11.308;2022-07-29T13:26:09;4.90;;;3.47;;
55134;SDS011;41031;44.750;11.308;2022-07-29T13:28:38;3.93;;;3.20;;
55134;SDS011;41031;44.750;11.308;2022-07-29T13:31:09;3.30;;;3.00;;
55134;SDS011;41031;44.750;11.308;2022-07-29T13:33:37;3.87;;;2.87;;
55134;SDS011;41031;44.750;11.308;2022-07-29T13:36:04;5.20;;;2.80;;
55134;SDS011;41031;44.750;11.308;2022-07-29T13:38:31;3.67;;;3.13;;
55134;SDS011;41031;44.750;11.308;2022-07-29T13:40:58;7.07;;;2.78;;
55134;SDS011;41031;44.750;11.308;2022-07-29T13:43:25;6.17;;;2.77;;
55134;SDS011;41031;44.750;11.308;2022-07-29T13:45:52;10.60;;;3.77;;
55134;SDS011;41031;44.750;11.308;2022-07-29T13:48:20;5.30;;;3.55;;
55134;SDS011;41031;44.750;11.308;2022-07-29T13:50:47;3.40;;;3.10;;
55134;SDS011;41031;44.750;11.308;2022-07-29T13:53:14;4.00;;;2.90;;
55134;SDS011;41031;44.750;11.308;2022-07-29T13:55:43;4.28;;;3.08;;
55134;SDS011;41031;44.750;11.308;2022-07-29T13:58:10;3.63;;;3.33;;
55134;SDS011;41031;44.750;11.308;2022-07-29T14:00:38;4.53;;;3.50;;
55134;SDS011;41031;44.750;11.308;2022-07-29T14:03:05;3.10;;;2.80;;
55134;SDS011;41031;44.750;11.308;2022-07-29T14:05:32;4.00;;;3.60;;
55134;SDS011;41031;44.750;11.308;2022-07-29T14:07:59;4.40;;;2.83;;
55134;SDS011;41031;44.750;11.308;2022-07-29T14:10:27;4.78;;;3.55;;
55134;SDS011;41031;44.750;11.308;2022-07-29T14:12:54;6.40;;;3.47;;
55134;SDS011;41031;44.750;11.308;2022-07-29T14:15:21;3.83;;;3.10;;
55134;SDS011;41031;44.750;11.308;2022-07-29T14:17:49;3.20;;;2.90;;
55134;SDS011;41031;44.750;11.308;2022-07-29T14:20:16;4.73;;;3.10;;
55134;SDS011;41031;44.750;11.308;2022-07-29T14:22:44;4.70;;;3.47;;
55134;SDS011;41031;44.750;11.308;2022-07-29T14:25:11;3.60;;;3.30;;
55134;SDS011;41031;44.750;11.308;2022-07-29T14:27:41;8.33;;;3.23;;
55134;SDS011;41031;44.750;11.308;2022-07-29T14:30:09;4.97;;;3.33;;
55134;SDS011;41031;44.750;11.308;2022-07-29T14:32:36;6.10;;;3.40;;
55134;SDS011;41031;44.750;11.308;2022-07-29T14:35:04;6.43;;;3.07;;
55134;SDS011;41031;44.750;11.308;2022-07-29T14:37:32;3.38;;;3.08;;
55134;SDS011;41031;44.750;11.308;2022-07-29T14:40:06;4.55;;;3.15;;
55134;SDS011;41031;44.750;11.308;2022-07-29T14:42:34;4.95;;;3.35;;
55134;SDS011;41031;44.750;11.308;2022-07-29T14:45:02;3.80;;;3.50;;
55134;SDS011;41031;44.750;11.308;2022-07-29T14:47:33;5.53;;;3.50;;
55134;SDS011;41031;44.750;11.308;2022-07-29T14:50:01;4.80;;;3.47;;
55134;SDS011;41031;44.750;11.308;2022-07-29T14:52:28;4.40;;;2.95;;
55134;SDS011;41031;44.750;11.308;2022-07-29T14:54:55;5.13;;;3.27;;
55134;SDS011;41031;44.750;11.308;2022-07-29T14:57:22;7.40;;;3.30;;
55134;SDS011;41031;44.750;11.308;2022-07-29T14:59:50;4.53;;;3.20;;
55134;SDS011;41031;44.750;11.308;2022-07-29T15:02:17;5.22;;;3.63;;
55134;SDS011;41031;44.750;11.308;2022-07-29T15:04:44;5.53;;;3.60;;
55134;SDS011;41031;44.750;11.308;2022-07-29T15:07:12;8.88;;;3.58;;
55134;SDS011;41031;44.750;11.308;2022-07-29T15:09:40;4.77;;;3.60;;
55134;SDS011;41031;44.750;11.308;2022-07-29T15:12:15;4.07;;;3.50;;
55134;SDS011;41031;44.750;11.308;2022-07-29T15:14:42;5.37;;;3.20;;
55134;SDS011;41031;44.750;11.308;2022-07-29T15:17:09;3.70;;;3.40;;
55134;SDS011;41031;44.750;11.308;2022-07-29T15:19:37;4.40;;;3.70;;
55134;SDS011;41031;44.750;11.308;2022-07-29T15:22:10;7.10;;;3.80;;
55134;SDS011;41031;44.750;11.308;2022-07-29T15:24:37;9.37;;;3.57;;
55134;SDS011;41031;44.750;11.308;2022-07-29T15:27:04;7.50;;;3.50;;
55134;SDS011;41031;44.750;11.308;2022-07-29T15:29:31;4.67;;;3.60;;
55134;SDS011;41031;44.750;11.308;2022-07-29T15:31:59;5.60;;;3.67;;
55134;SDS011;41031;44.750;11.308;2022-07-29T15:34:26;8.53;;;3.30;;
55134;SDS011;41031;44.750;11.308;2022-07-29T15:36:53;5.00;;;3.43;;
55134;SDS011;41031;44.750;11.308;2022-07-29T15:39:21;4.53;;;3.43;;
55134;SDS011;41031;44.750;11.308;2022-07-29T15:41:48;12.40;;;3.90;;
55134;SDS011;41031;44.750;11.308;2022-07-29T15:44:16;17.03;;;4.13;;
55134;SDS011;41031;44.750;11.308;2022-07-29T15:46:46;6.03;;;3.90;;